Time;durP1;ratioP1;P1;durP2;ratioP2;P2;SDS_P1;SDS_P2;PMS_P1;PMS_P2;Temp;Humidity;BMP_temperature;BMP_pressure;BME280_temperature;BME280_humidity;BME280_pressure;Samples;Min_cycle;Max_cycle;Signal;HPM_P1;HPM_P2
2021/06/18 00:10:49;;;;;;;;;;;;;;;;;;;;;
2021/06/18 00:14:27;;;;;;;;;;;;;;;;;;;;;
2021/06/18 00:18:07;;;;;;;;;;;;;;;;;;;;;
2021/06/18 00:21:33;;;;;;;4.10;2.50;;;;;;;23.58;55.89;100864.63;123784;1127;64344;-83
2021/06/18 00:25:10;;;;;;;;;;;;;;;;;;;;;
2021/06/18 00:28:50;;;;;;;;;;;;;;;;;;;;;
2021/06/18 00:36:05;;;;;;;3.90;2.45;;;;;;;23.50;55.67;100837.45;124088;1124;64285;-84
2021/06/18 00:39:42;;;;;;;3.47;2.40;;;;;;;23.49;55.79;100837.58;124472;1122;64214;-83
2021/06/18 00:43:33;;;;;;;3.00;2.20;;;;;;;23.46;56.04;100835.98;124511;1122;64213;-83
2021/06/18 00:46:57;;;;;;;3.65;2.50;;;;;;;23.45;56.25;100844.20;124525;1121;64288;-83
2021/06/18 00:54:00;;;;;;;;;;;;;;;;;;;;;
2021/06/18 00:57:48;;;;;;;4.05;2.40;;;;;;;23.51;56.57;100833.78;125040;1114;64142;-84
2021/06/18 01:02:01;;;;;;;4.40;2.40;;;;;;;23.56;56.01;100831.58;124737;1118;64192;-83
2021/06/18 01:05:20;;;;;;;;;;;;;;;;;;;;;
2021/06/18 01:09:17;;;;;;;;;;;;;;;;;;;;;
2021/06/18 01:13:05;;;;;;;;;;;;;;;;;;;;;
2021/06/18 01:17:07;;;;;;;;;;;;;;;;;;;;;
2021/06/18 01:20:38;;;;;;;4.20;2.30;;;;;;;23.56;56.12;100819.92;124619;1121;64217;-83
2021/06/18 01:23:59;;;;;;;3.05;2.35;;;;;;;23.55;56.28;100826.28;124050;1125;64202;-83
2021/06/18 01:31:46;;;;;;;;;;;;;;;;;;;;;
2021/06/18 01:35:01;;;;;;;;;;;;;;;;;;;;;
2021/06/18 01:38:57;;;;;;;3.55;2.55;;;;;;;23.44;56.21;100819.08;123826;1128;64568;-84
2021/06/18 01:41:40;;;;;;;3.85;2.55;;;;;;;23.44;56.46;100813.69;123884;1124;64144;-83
2021/06/18 01:45:22;;;;;;;;;;;;;;;;;;;;;
2021/06/18 01:52:40;;;;;;;;;;;;;;;;;;;;;
2021/06/18 01:56:22;;;;;;;;;;;;;;;;;;;;;
2021/06/18 02:00:01;;;;;;;;;;;;;;;;;;;;;
2021/06/18 02:03:39;;;;;;;;;;;;;;;;;;;;;
2021/06/18 02:07:27;;;;;;;;;;;;;;;;;;;;;
2021/06/18 02:10:55;;;;;;;3.60;2.60;;;;;;;23.55;56.19;100846.02;124677;1120;64010;-84
2021/06/18 02:14:25;;;;;;;3.50;2.30;;;;;;;23.54;55.94;100855.08;124643;1122;64377;-83
2021/06/18 02:18:39;;;;;;;4.20;2.40;;;;;;;23.51;56.48;100854.46;124483;1122;64530;-84
2021/06/18 02:25:04;;;;;;;;;;;;;;;;;;;;;
2021/06/18 02:29:25;;;;;;;4.10;2.60;;;;;;;23.44;55.98;100878.34;124108;1122;64195;-84
2021/06/18 02:32:37;;;;;;;;;;;;;;;;;;;;;
2021/06/18 02:39:55;;;;;;;;;;;;;;;;;;;;;
2021/06/18 02:43:39;;;;;;;;;;;;;;;;;;;;;
2021/06/18 02:47:28;;;;;;;;;;;;;;;;;;;;;
2021/06/18 02:51:31;;;;;;;;;;;;;;;;;;;;;
2021/06/18 02:55:08;;;;;;;3.65;2.40;;;;;;;23.58;56.38;100818.81;123722;1127;64206;-84
2021/06/18 03:02:42;;;;;;;;;;;;;;;;;;;;;
2021/06/18 03:06:23;;;;;;;;;;;;;;;;;;;;;
2021/06/18 03:10:21;;;;;;;;;;;;;;;;;;;;;
2021/06/18 03:21:00;;;;;;;;;;;;;;;;;;;;;
2021/06/18 03:28:27;;;;;;;;;;;;;;;;;;;;;
2021/06/18 03:32:25;;;;;;;4.10;2.40;;;;;;;23.50;56.88;100840.14;123611;1127;64247;-83
2021/06/18 03:43:35;;;;;;;;;;;;;;;;;;;;;
2021/06/18 04:02:24;;;;;;;;;;;;;;;;;;;;;
2021/06/18 04:09:53;;;;;;;4.70;2.90;;;;;;;23.49;56.32;100846.50;127753;1093;64198;-82
2021/06/18 04:17:41;;;;;;;;;;;;;;;;;;;;;
2021/06/18 04:28:47;;;;;;;;;;;;;;;;;;;;;
2021/06/18 04:39:52;;;;;;;;;;;;;;;;;;;;;
2021/06/18 04:46:55;;;;;;;5.87;2.77;;;;;;;23.60;56.05;100859.11;126143;1098;64667;-81
2021/06/18 04:50:15;;;;;;;4.77;3.00;;;;;;;23.55;56.02;100859.50;125513;1103;64207;-82
2021/06/18 04:53:30;;;;;;;7.03;3.40;;;;;;;23.49;55.54;100856.44;125479;1102;64064;-81
2021/06/18 04:57:02;;;;;;;6.33;3.30;;;;;;;23.43;56.05;100865.88;125378;1103;64195;-80
2021/06/18 05:00:26;;;;;;;;;;;;;;;;;;;;;
2021/06/18 05:03:53;;;;;;;;;;;;;;;;;;;;;
2021/06/18 05:07:13;;;;;;;;;;;;;;;;;;;;;
2021/06/18 05:10:18;;;;;;;7.30;3.40;;;;;;;23.45;56.90;100865.75;125546;1103;64195;-81
2021/06/18 05:14:31;;;;;;;6.67;3.60;;;;;;;23.49;56.91;100875.30;125499;1103;64836;-81
2021/06/18 05:17:35;;;;;;;;;;;;;;;;;;;;;
2021/06/18 05:21:13;;;;;;;;;;;;;;;;;;;;;
2021/06/18 05:24:05;;;;;;;6.13;3.35;;;;;;;23.54;56.74;100873.09;125083;1109;64220;-84
2021/06/18 05:28:05;;;;;;;;;;;;;;;;;;;;;
2021/06/18 05:31:05;;;;;;;;;;;;;;;;;;;;;
2021/06/18 05:34:21;;;;;;;10.05;3.33;;;;;;;23.54;56.43;100871.25;125095;1108;64154;-82
2021/06/18 05:37:38;;;;;;;15.83;3.80;;;;;;;23.54;56.52;100875.79;125148;1108;64189;-82
2021/06/18 05:40:43;;;;;;;;;;;;;;;;;;;;;
2021/06/18 05:44:03;;;;;;;;;;;;;;;;;;;;;
2021/06/18 05:47:07;;;;;;;10.25;4.00;;;;;;;23.58;56.91;100867.31;125122;1107;64211;-81
2021/06/18 05:50:12;;;;;;;9.00;4.30;;;;;;;23.56;57.29;100874.69;124966;1108;64273;-81
2021/06/18 05:53:21;;;;;;;10.97;4.40;;;;;;;23.54;57.12;100876.63;125083;1103;64143;-81
2021/06/18 05:56:18;;;;;;;12.30;4.60;;;;;;;23.53;57.18;100877.61;127083;1101;63568;-81
2021/06/18 05:59:07;;;;;;;17.63;4.90;;;;;;;23.54;57.29;100878.48;127044;1103;63192;-81
2021/06/18 06:01:54;;;;;;;24.10;5.37;;;;;;;23.58;57.62;100877.25;127408;1099;63410;-80
2021/06/18 06:04:43;;;;;;;22.47;5.17;;;;;;;23.60;57.69;100873.45;126345;1100;64154;-81
2021/06/18 06:07:32;;;;;;;17.70;4.60;;;;;;;23.64;57.50;100870.50;126269;1095;64298;-80
2021/06/18 06:10:28;;;;;;;15.87;4.53;;;;;;;23.68;58.22;100874.66;127638;1096;63167;-81
2021/06/18 06:13:27;;;;;;;;;;;;;;;;;;;;;
2021/06/18 06:16:34;;;;;;;10.30;4.43;;;;;;;23.71;57.70;100871.70;126302;1096;64178;-83
2021/06/18 06:19:58;;;;;;;13.53;4.40;;;;;;;23.70;57.65;100876.25;126404;1095;64386;-81
2021/06/18 06:23:35;;;;;;;21.77;4.80;;;;;;;23.69;57.92;100873.69;125866;1099;64265;-81
2021/06/18 06:26:37;;;;;;;25.87;4.10;;;;;;;23.67;57.69;100872.94;125725;1100;64227;-82
2021/06/18 06:29:53;;;;;;;14.93;4.23;;;;;;;23.64;57.36;100879.43;125703;1100;64125;-82
2021/06/18 06:33:09;;;;;;;17.40;4.53;;;;;;;23.64;57.41;100881.28;125597;1100;64307;-80
2021/06/18 06:35:55;;;;;;;13.70;3.33;;;;;;;23.60;57.28;100878.84;125610;1098;64140;-80
2021/06/18 06:38:41;;;;;;;15.73;3.70;;;;;;;23.59;57.62;100874.43;125602;1101;64173;-80
2021/06/18 06:41:31;;;;;;;12.20;3.50;;;;;;;23.58;57.66;100875.41;125637;1100;64118;-83
2021/06/18 06:44:23;;;;;;;8.13;3.53;;;;;;;23.57;57.36;100876.38;125590;1101;64657;-82
2021/06/18 06:47:49;;;;;;;9.70;3.87;;;;;;;23.57;57.83;100868.30;125612;1100;64206;-81
2021/06/18 06:50:59;;;;;;;7.43;3.67;;;;;;;23.60;57.63;100859.11;125543;1101;64185;-82
2021/06/18 06:54:28;;;;;;;8.70;3.70;;;;;;;23.60;58.00;100857.28;125569;1100;62948;-85
2021/06/18 06:57:40;;;;;;;10.03;4.23;;;;;;;23.58;57.66;100853.00;125677;1100;64173;-82
2021/06/18 07:00:47;;;;;;;;;;;;;;;;;;;;;
2021/06/18 07:03:57;;;;;;;15.87;4.30;;;;;;;23.60;57.80;100857.28;126221;1096;64223;-80
2021/06/18 07:07:12;;;;;;;12.70;4.80;;;;;;;23.63;57.90;100855.30;125665;1099;64195;-80
2021/06/18 07:10:25;;;;;;;11.90;4.20;;;;;;;23.61;57.99;100847.35;125684;1100;64169;-80
2021/06/18 07:13:21;;;;;;;17.53;4.60;;;;;;;23.63;58.24;100840.02;125712;1100;64189;-81
2021/06/18 07:16:36;;;;;;;16.73;4.50;;;;;;;23.67;58.54;100835.20;125639;1100;64158;-83
2021/06/18 07:19:43;;;;;;;13.03;4.37;;;;;;;23.72;58.76;100836.56;125495;1103;64994;-83
2021/06/18 07:22:37;;;;;;;14.30;5.00;;;;;;;23.76;58.71;100823.67;125529;1103;64271;-83
2021/06/18 07:25:43;;;;;;;;;;;;;;;;;;;;;
2021/06/18 07:29:12;;;;;;;;;;;;;;;;;;;;;
2021/06/18 07:32:30;;;;;;;;;;;;;;;;;;;;;
2021/06/18 07:35:42;;;;;;;;;;;;;;;;;;;;;
2021/06/18 07:39:15;;;;;;;;;;;;;;;;;;;;;
2021/06/18 07:42:11;;;;;;;18.40;4.50;;;;;;;23.82;59.05;100782.73;125361;1103;64300;-81
2021/06/18 07:45:11;;;;;;;10.33;4.53;;;;;;;23.81;59.10;100785.57;125029;1106;64226;-83
2021/06/18 07:48:09;;;;;;;17.53;5.40;;;;;;;23.77;59.37;100791.19;125227;1105;64201;-82
2021/06/18 07:51:09;;;;;;;14.93;5.40;;;;;;;23.72;59.13;100788.05;125135;1106;64179;-82
2021/06/18 07:54:06;;;;;;;17.47;5.67;;;;;;;23.76;59.48;100772.45;125008;1105;64345;-84
2021/06/18 07:56:52;;;;;;;15.50;5.83;;;;;;;23.79;59.42;100768.66;125129;1103;64408;-80
2021/06/18 07:59:41;;;;;;;16.77;5.60;;;;;;;23.83;59.87;100775.50;125194;1103;64216;-81
2021/06/18 08:02:28;;;;;;;17.13;5.57;;;;;;;23.81;59.80;100786.41;125357;1102;64213;-80
2021/06/18 08:05:15;;;;;;;17.33;6.23;;;;;;;23.77;59.59;100788.50;125287;1103;64390;-81
2021/06/18 08:08:01;;;;;;;8.87;5.37;;;;;;;23.73;59.80;100786.20;125253;1101;64180;-81
2021/06/18 08:11:02;;;;;;;10.90;6.00;;;;;;;23.70;59.64;100794.55;125312;1102;64256;-83
2021/06/18 08:14:09;;;;;;;10.93;5.70;;;;;;;23.65;59.77;100791.38;125337;1100;64204;-82
2021/06/18 08:16:58;;;;;;;12.70;5.67;;;;;;;23.63;59.37;100785.23;127225;1100;62202;-82
2021/06/18 08:20:26;;;;;;;;;;;;;;;;;;;;;
2021/06/18 08:23:31;;;;;;;;;;;;;;;;;;;;;
2021/06/18 08:27:09;;;;;;;12.00;5.60;;;;;;;23.59;59.11;100766.64;126122;1096;64667;-83
2021/06/18 08:30:51;;;;;;;7.63;5.37;;;;;;;23.61;59.51;100761.12;125649;1099;64324;-81
2021/06/18 08:33:39;;;;;;;10.63;4.93;;;;;;;23.64;59.52;100757.31;127252;1100;63894;-81
2021/06/18 08:36:43;;;;;;;10.73;5.13;;;;;;;23.67;59.66;100755.23;125549;1100;64134;-81
2021/06/18 08:39:51;;;;;;;9.03;5.00;;;;;;;23.69;59.62;100752.41;125781;1100;64215;-81
2021/06/18 08:43:13;;;;;;;;;;;;;;;;;;;;;
2021/06/18 08:47:00;;;;;;;;;;;;;;;;;;;;;
2021/06/18 08:50:23;;;;;;;;;;;;;;;;;;;;;
2021/06/18 08:53:12;;;;;;;7.43;4.87;;;;;;;23.58;59.11;100747.91;126683;1105;62357;-81
2021/06/18 08:56:01;;;;;;;7.63;5.17;;;;;;;23.58;59.35;100746.06;126692;1109;62083;-81
2021/06/18 08:58:59;;;;;;;8.90;4.60;;;;;;;23.58;59.33;100740.67;126676;1109;62959;-81
2021/06/18 09:02:05;;;;;;;12.60;5.53;;;;;;;23.60;59.28;100737.84;126691;1109;62097;-81
2021/06/18 09:05:11;;;;;;;10.50;5.87;;;;;;;23.58;59.48;100719.11;126517;1109;62407;-81
2021/06/18 09:08:03;;;;;;;10.13;5.40;;;;;;;23.58;59.69;100710.19;126397;1108;62548;-81
2021/06/18 09:10:51;;;;;;;9.17;5.17;;;;;;;23.60;59.36;100713.59;126636;1109;63897;-81
2021/06/18 09:13:38;;;;;;;12.87;5.33;;;;;;;23.67;59.51;100705.84;126482;1109;62777;-81
2021/06/18 09:17:17;;;;;;;;;;;;;;;;;;;;;
2021/06/18 09:20:54;;;;;;;10.00;5.00;;;;;;;23.79;60.03;100704.84;125153;1105;64161;-81
2021/06/18 09:23:45;;;;;;;10.33;5.17;;;;;;;23.78;59.74;100703.13;125293;1103;64243;-81
2021/06/18 09:26:45;;;;;;;10.33;5.93;;;;;;;23.78;59.54;100716.59;127098;1103;63471;-81
2021/06/18 09:29:31;;;;;;;9.13;6.37;;;;;;;23.74;59.79;100734.02;127107;1100;62663;-81
2021/06/18 09:32:18;;;;;;;9.97;5.77;;;;;;;23.69;59.52;100755.94;127217;1100;62197;-81
2021/06/18 09:35:13;;;;;;;9.53;5.73;;;;;;;23.63;59.48;100772.64;125500;1101;64540;-81
2021/06/18 09:38:02;;;;;;;10.70;6.17;;;;;;;23.51;59.90;100769.12;125757;1099;64294;-81
2021/06/18 09:41:04;;;;;;;9.57;5.33;;;;;;;23.45;60.15;100766.08;125929;1100;62710;-81
2021/06/18 09:44:08;;;;;;;9.97;5.10;;;;;;;23.43;60.29;100755.43;126297;1097;64297;-83
2021/06/18 09:47:06;;;;;;;9.67;4.93;;;;;;;23.47;60.56;100740.72;126213;1097;64198;-81
2021/06/18 09:50:39;;;;;;;;;;;;;;;;;;;;;
2021/06/18 09:53:34;;;;;;;9.27;5.07;;;;;;;23.44;59.90;100759.81;126341;1095;65700;-83
2021/06/18 09:56:20;;;;;;;10.00;5.40;;;;;;;23.41;60.09;100766.30;127948;1097;62240;-81
2021/06/18 09:59:40;;;;;;;7.57;5.40;;;;;;;23.41;60.56;100766.30;127992;1097;63489;-81
2021/06/18 10:03:00;;;;;;;8.00;4.10;;;;;;;23.41;60.72;100750.14;127962;1097;62145;-82
2021/06/18 10:06:25;;;;;;;;;;;;;;;;;;;;;
2021/06/18 10:09:15;;;;;;;11.00;4.77;;;;;;;23.51;60.92;100744.88;127966;1095;62326;-81
2021/06/18 10:12:08;;;;;;;7.40;5.07;;;;;;;23.57;60.60;100747.03;127950;1097;63001;-83
2021/06/18 10:14:55;;;;;;;12.90;5.27;;;;;;;23.67;60.87;100749.84;127902;1097;61940;-83
2021/06/18 10:17:42;;;;;;;8.57;5.10;;;;;;;23.74;60.88;100745.64;128012;1097;62198;-83
2021/06/18 10:20:36;;;;;;;7.87;5.47;;;;;;;23.78;60.93;100751.64;128011;1096;62354;-83
2021/06/18 10:23:24;;;;;;;8.70;4.83;;;;;;;23.80;60.56;100746.95;128056;1096;62852;-84
2021/06/18 10:26:13;;;;;;;10.48;4.68;;;;;;;23.82;60.48;100742.30;127480;1097;62100;-83
2021/06/18 10:29:00;;;;;;;;;;;;;;;23.84;60.89;100734.09;126492;1095;64127;-84
2021/06/18 10:31:59;;;;;;;6.10;4.60;;;;;;;23.87;60.60;100726.61;126475;1098;64246;-81
2021/06/18 10:34:45;;;;;;;10.95;5.70;;;;;;;23.89;60.80;100740.83;126006;1098;64347;-81
2021/06/18 10:37:32;;;;;;;7.87;5.27;;;;;;;23.84;60.72;100743.02;125998;1099;64170;-82
2021/06/18 10:40:51;;;;;;;8.50;5.33;;;;;;;23.78;60.37;100730.08;126433;1095;64115;-82
2021/06/18 10:43:49;;;;;;;7.77;5.90;;;;;;;23.73;60.52;100737.69;126704;1096;64693;-82
2021/06/18 10:46:47;;;;;;;8.47;5.43;;;;;;;23.68;60.60;100745.30;126736;1096;64150;-82
2021/06/18 10:49:40;;;;;;;7.17;5.27;;;;;;;23.63;60.26;100750.20;126543;1095;64147;-81
2021/06/18 10:52:42;;;;;;;8.43;6.07;;;;;;;23.58;60.57;100753.30;126660;1096;64339;-83
2021/06/18 10:55:50;;;;;;;11.30;6.00;;;;;;;23.50;60.46;100745.00;126974;1096;64298;-82
2021/06/18 10:59:06;;;;;;;8.60;5.57;;;;;;;23.47;60.61;100743.41;126735;1095;64467;-81
2021/06/18 11:01:55;;;;;;;8.60;5.30;;;;;;;23.48;60.84;100741.56;126907;1093;64387;-80
2021/06/18 11:05:06;;;;;;;8.27;5.90;;;;;;;23.49;60.63;100746.81;126860;1093;64266;-81
2021/06/18 11:08:31;;;;;;;;;;;;;;;;;;;;;
2021/06/18 11:11:42;;;;;;;6.83;5.40;;;;;;;23.39;60.31;100735.95;127015;1093;64304;-82
2021/06/18 11:14:45;;;;;;;8.93;5.40;;;;;;;23.36;60.24;100747.00;127021;1092;64256;-82
2021/06/18 11:18:18;;;;;;;10.40;5.73;;;;;;;23.35;60.37;100737.20;127131;1093;65354;-83
2021/06/18 11:21:08;;;;;;;9.90;6.43;;;;;;;23.35;60.42;100737.20;126633;1097;64082;-81
2021/06/18 11:23:59;;;;;;;8.03;5.37;;;;;;;23.36;60.14;100730.83;126779;1099;64118;-83
2021/06/18 11:27:25;;;;;;;9.77;4.60;;;;;;;23.40;60.56;100734.11;126877;1097;63967;-82
2021/06/18 11:30:53;;;;;;;7.20;4.93;;;;;;;23.44;60.55;100746.34;126853;1100;64111;-82
2021/06/18 11:34:02;;;;;;;7.18;4.63;;;;;;;23.49;60.52;100748.67;126790;1097;64156;-81
2021/06/18 11:36:52;;;;;;;8.13;5.67;;;;;;;23.55;60.43;100745.45;126031;1099;64223;-82
2021/06/18 11:39:43;;;;;;;8.07;5.20;;;;;;;23.55;60.32;100750.84;126063;1100;64183;-82
2021/06/18 11:42:41;;;;;;;7.03;5.40;;;;;;;23.56;60.20;100745.34;125926;1099;64179;-82
2021/06/18 11:45:46;;;;;;;9.70;6.10;;;;;;;23.57;60.10;100759.66;125998;1099;64148;-82
2021/06/18 11:48:43;;;;;;;6.50;5.40;;;;;;;23.57;60.16;100751.58;125973;1099;64365;-82
2021/06/18 11:51:32;;;;;;;8.40;5.03;;;;;;;23.56;60.19;100752.55;126154;1098;64483;-84
2021/06/18 11:54:45;;;;;;;10.33;5.33;;;;;;;23.57;59.97;100748.89;126350;1100;64179;-83
2021/06/18 11:57:51;;;;;;;9.23;4.70;;;;;;;23.57;60.12;100730.87;126851;1095;64166;-82
2021/06/18 12:00:47;;;;;;;11.23;5.50;;;;;;;23.60;60.18;100730.64;126764;1096;64390;-83
2021/06/18 12:03:33;;;;;;;11.00;5.80;;;;;;;23.63;60.45;100725.95;126864;1096;64192;-82
2021/06/18 12:06:39;;;;;;;11.93;5.70;;;;;;;23.64;60.32;100722.28;126909;1096;64326;-82
2021/06/18 12:09:47;;;;;;;9.87;5.93;;;;;;;23.64;60.33;100712.34;126863;1096;64026;-83
2021/06/18 12:12:49;;;;;;;12.33;5.80;;;;;;;23.65;60.04;100702.44;126905;1099;64294;-83
2021/06/18 12:15:45;;;;;;;16.13;5.83;;;;;;;23.65;59.79;100699.75;127119;1096;64179;-83
2021/06/18 12:18:38;;;;;;;11.70;5.20;;;;;;;23.65;60.05;100699.75;127187;1096;64295;-83
2021/06/18 12:21:37;;;;;;;8.33;5.00;;;;;;;23.67;60.32;100697.77;127145;1095;64142;-82
2021/06/18 12:24:28;;;;;;;12.10;5.77;;;;;;;23.69;60.09;100707.43;127199;1095;64214;-82
2021/06/18 12:27:26;;;;;;;9.90;5.40;;;;;;;23.73;60.35;100706.19;127211;1092;64131;-82
2021/06/18 12:30:19;;;;;;;9.83;6.03;;;;;;;23.75;60.07;100706.08;127235;1092;64151;-82
2021/06/18 12:33:22;;;;;;;11.87;6.23;;;;;;;23.77;59.85;100704.09;127200;1093;64118;-83
2021/06/18 12:36:36;;;;;;;8.60;5.30;;;;;;;23.77;60.18;100696.02;127174;1092;64204;-82
2021/06/18 12:39:23;;;;;;;10.83;7.23;;;;;;;23.76;59.76;100702.38;127163;1093;64179;-82
2021/06/18 12:42:54;;;;;;;10.97;7.57;;;;;;;23.74;59.81;100710.59;127149;1093;64115;-82
2021/06/18 12:45:48;;;;;;;10.70;7.07;;;;;;;23.74;60.06;100704.37;126951;1097;64227;-83
2021/06/18 12:48:45;;;;;;;10.60;6.63;;;;;;;23.75;60.07;100711.47;126896;1100;64285;-83
2021/06/18 12:51:35;;;;;;;9.43;6.73;;;;;;;23.77;59.71;100720.27;126948;1100;64435;-82
2021/06/18 12:54:36;;;;;;;11.73;7.53;;;;;;;23.80;59.92;100725.39;127006;1100;64233;-83
2021/06/18 12:57:31;;;;;;;10.30;6.90;;;;;;;23.82;59.66;100722.59;127007;1097;64371;-81
2021/06/18 13:00:24;;;;;;;11.70;7.47;;;;;;;23.82;59.84;100728.83;127042;1097;64234;-82
2021/06/18 13:03:14;;;;;;;14.40;7.17;;;;;;;23.82;59.95;100725.29;126993;1095;64287;-82
2021/06/18 13:06:05;;;;;;;13.03;7.63;;;;;;;23.82;59.95;100738.77;127014;1097;64278;-83
2021/06/18 13:09:07;;;;;;;14.50;8.20;;;;;;;23.79;59.64;100731.80;126975;1097;63926;-83
2021/06/18 13:11:57;;;;;;;12.30;8.50;;;;;;;23.75;59.65;100739.27;127022;1096;64141;-83
2021/06/18 13:14:51;;;;;;;11.47;7.80;;;;;;;23.75;59.79;100743.82;127020;1097;64173;-84
2021/06/18 13:18:18;;;;;;;13.00;8.30;;;;;;;23.75;59.67;100746.52;127035;1096;64111;-81
2021/06/18 13:21:10;;;;;;;14.20;8.07;;;;;;;23.77;59.81;100747.22;127048;1092;64144;-84
2021/06/18 13:24:41;;;;;;;9.60;7.33;;;;;;;23.79;60.18;100745.27;127201;1093;64243;-83
2021/06/18 13:27:33;;;;;;;8.70;6.87;;;;;;;23.81;59.96;100740.59;127213;1093;64141;-82
2021/06/18 13:30:38;;;;;;;13.20;8.20;;;;;;;23.81;60.09;100735.20;127240;1092;64304;-83
2021/06/18 13:33:29;;;;;;;9.67;7.33;;;;;;;23.81;59.89;100748.67;127237;1093;64132;-82
2021/06/18 13:36:36;;;;;;;12.23;7.43;;;;;;;23.80;59.59;100738.87;127181;1093;64150;-83
2021/06/18 13:39:52;;;;;;;10.70;7.60;;;;;;;23.77;60.04;100734.59;127145;1093;63920;-83
2021/06/18 13:42:50;;;;;;;10.90;6.50;;;;;;;23.73;59.61;100735.83;127058;1098;64147;-83
2021/06/18 13:45:37;;;;;;;9.35;6.45;;;;;;;23.74;59.76;100739.41;127038;1099;64169;-82
2021/06/18 13:48:31;;;;;;;9.90;6.73;;;;;;;23.76;59.96;100742.81;126989;1099;63993;-82
2021/06/18 13:51:23;;;;;;;10.73;6.77;;;;;;;23.79;60.32;100750.66;126970;1099;64185;-82
2021/06/18 13:54:17;;;;;;;8.70;6.03;;;;;;;23.82;60.36;100750.39;127047;1099;64231;-83
2021/06/18 13:57:12;;;;;;;11.70;6.53;;;;;;;23.83;59.89;100753.93;127092;1099;64004;-83
2021/06/18 14:00:02;;;;;;;8.40;6.20;;;;;;;23.81;60.13;100743.28;127136;1100;64115;-83
2021/06/18 14:03:08;;;;;;;10.00;5.73;;;;;;;23.80;59.69;100754.20;127129;1100;64169;-83
2021/06/18 14:06:09;;;;;;;9.03;5.83;;;;;;;23.78;59.70;100754.33;126643;1099;64163;-83
2021/06/18 14:09:07;;;;;;;8.93;5.50;;;;;;;23.77;60.03;100758.84;127142;1098;64211;-84
2021/06/18 14:12:22;;;;;;;7.70;5.33;;;;;;;23.77;60.01;100749.92;127094;1100;64287;-83
2021/06/18 14:15:37;;;;;;;7.53;5.87;;;;;;;23.79;59.80;100739.88;126301;1100;64150;-82
2021/06/18 14:18:44;;;;;;;;;;;;;;;;;;;;;
2021/06/18 14:21:36;;;;;;;9.00;6.07;;;;;;;23.82;60.10;100736.91;127084;1100;64213;-85
2021/06/18 14:24:28;;;;;;;8.60;5.83;;;;;;;23.84;59.97;100734.09;127039;1100;64362;-83
2021/06/18 14:27:23;;;;;;;8.10;6.07;;;;;;;23.82;59.69;100723.44;127014;1098;64227;-84
2021/06/18 14:30:18;;;;;;;7.67;5.60;;;;;;;23.82;59.64;100727.98;126687;1098;64279;-83
2021/06/18 14:33:12;;;;;;;8.07;5.93;;;;;;;23.80;59.64;100727.25;127121;1100;64253;-83
2021/06/18 14:36:05;;;;;;;9.33;6.50;;;;;;;23.77;59.74;100720.27;127080;1100;64208;-84
2021/06/18 14:38:57;;;;;;;8.77;5.63;;;;;;;23.76;59.55;100722.13;127053;1099;64115;-84
2021/06/18 14:41:43;;;;;;;8.13;5.47;;;;;;;23.76;59.43;100723.94;126889;1098;64307;-84
2021/06/18 14:44:30;;;;;;;10.53;5.73;;;;;;;23.78;59.57;100713.91;126437;1099;64277;-81
2021/06/18 14:47:25;;;;;;;8.03;5.67;;;;;;;23.81;59.90;100710.94;126889;1100;64307;-84
2021/06/18 14:50:12;;;;;;;8.20;5.63;;;;;;;23.83;59.56;100700.02;126868;1099;64143;-83
2021/06/18 14:53:00;;;;;;;8.63;6.40;;;;;;;23.83;59.86;100692.81;127136;1093;64118;-84
2021/06/18 14:55:52;;;;;;;9.30;6.90;;;;;;;23.82;59.46;100699.17;127162;1093;64120;-83
2021/06/18 14:58:52;;;;;;;9.93;6.53;;;;;;;23.83;59.44;100700.02;127243;1093;64171;-84
2021/06/18 15:01:38;;;;;;;8.73;6.53;;;;;;;23.80;59.62;100698.44;127203;1091;64219;-84
2021/06/18 15:04:37;;;;;;;;;;;;;;;;;;;;;
2021/06/18 15:07:33;;;;;;;8.80;6.03;;;;;;;23.75;59.60;100704.23;127233;1092;65067;-83
2021/06/18 15:10:25;;;;;;;9.40;6.17;;;;;;;23.74;59.56;100699.81;127218;1093;64227;-82
2021/06/18 15:13:21;;;;;;;8.60;5.70;;;;;;;23.74;59.30;100704.37;127274;1093;64237;-85
2021/06/18 15:16:12;;;;;;;9.87;6.03;;;;;;;23.75;59.71;100709.63;127253;1093;64263;-85
2021/06/18 15:19:01;;;;;;;8.20;6.43;;;;;;;23.79;59.39;100709.35;127223;1092;64205;-82
2021/06/18 15:21:49;;;;;;;10.57;6.60;;;;;;;23.81;59.73;100715.48;127144;1093;64317;-82
2021/06/18 15:24:39;;;;;;;8.33;6.08;;;;;;;23.81;59.63;100720.88;127155;1093;64140;-83
2021/06/18 15:27:32;;;;;;;9.07;6.60;;;;;;;23.81;59.64;100742.44;127194;1093;64147;-82
2021/06/18 15:30:22;;;;;;;10.70;6.77;;;;;;;23.80;59.37;100733.48;127175;1093;64237;-82
2021/06/18 15:33:19;;;;;;;9.07;6.43;;;;;;;23.77;59.21;100734.59;127166;1093;64166;-83
2021/06/18 15:36:15;;;;;;;8.60;6.30;;;;;;;23.75;59.46;100711.47;127303;1093;64143;-83
2021/06/18 15:39:26;;;;;;;8.67;6.70;;;;;;;23.74;59.60;100710.59;127287;1092;64476;-83
2021/06/18 15:42:19;;;;;;;9.37;6.47;;;;;;;23.75;59.62;100711.47;127346;1092;64116;-83
2021/06/18 15:45:17;;;;;;;9.40;6.20;;;;;;;23.76;59.66;100700.56;127262;1093;64175;-83
2021/06/18 15:48:15;;;;;;;10.70;6.83;;;;;;;23.78;59.41;100697.73;127286;1093;64106;-83
2021/06/18 15:51:06;;;;;;;8.67;7.00;;;;;;;23.79;59.79;100702.14;127284;1093;64182;-83
2021/06/18 15:54:07;;;;;;;8.93;6.57;;;;;;;23.79;59.59;100707.53;127324;1093;64224;-84
2021/06/18 15:56:56;;;;;;;10.30;7.03;;;;;;;23.80;59.48;100694.90;127255;1093;64140;-83
2021/06/18 15:59:52;;;;;;;8.87;6.77;;;;;;;23.77;59.49;100704.09;127256;1093;64160;-83
2021/06/18 16:02:50;;;;;;;10.77;7.20;;;;;;;23.75;59.43;100700.69;127299;1096;64288;-84
2021/06/18 16:05:40;;;;;;;8.25;6.60;;;;;;;23.74;59.60;100696.28;127276;1093;63920;-83
2021/06/18 16:08:34;;;;;;;9.73;6.93;;;;;;;23.71;59.24;100701.91;127271;1096;64106;-83
2021/06/18 16:11:30;;;;;;;9.63;6.67;;;;;;;23.70;59.55;100702.92;127283;1093;64214;-83
2021/06/18 16:14:29;;;;;;;10.13;6.70;;;;;;;23.69;59.71;100698.50;127258;1093;64311;-83
2021/06/18 16:17:18;;;;;;;10.17;6.57;;;;;;;23.71;59.67;100704.61;127257;1093;64137;-83
2021/06/18 16:20:20;;;;;;;9.93;6.67;;;;;;;23.73;59.23;100705.34;127165;1093;64214;-83
2021/06/18 16:23:11;;;;;;;10.15;7.55;;;;;;;23.75;59.22;100703.39;127146;1093;64085;-81
2021/06/18 16:25:57;;;;;;;10.90;7.05;;;;;;;23.75;59.75;100696.14;127135;1093;64147;-82
2021/06/18 16:28:47;;;;;;;9.50;6.60;;;;;;;23.77;59.64;100701.41;127122;1093;64147;-83
2021/06/18 16:31:34;;;;;;;10.90;7.13;;;;;;;23.75;59.20;100703.39;127163;1093;64240;-82
2021/06/18 16:34:23;;;;;;;12.57;7.23;;;;;;;23.75;59.38;100711.47;127205;1093;64120;-85
2021/06/18 16:37:13;;;;;;;;;;;;;;;23.72;59.20;100711.71;127270;1093;64112;-86
2021/06/18 16:40:08;;;;;;;10.47;6.70;;;;;;;23.69;59.58;100710.13;127260;1093;64147;-83
2021/06/18 16:43:05;;;;;;;9.97;6.67;;;;;;;23.69;59.15;100711.98;127272;1093;64251;-84
2021/06/18 16:45:59;;;;;;;9.73;6.60;;;;;;;23.69;59.52;100714.67;127283;1093;64152;-83
2021/06/18 16:49:08;;;;;;;;;;;;;;;;;;;;;
2021/06/18 16:52:04;;;;;;;11.07;7.00;;;;;;;23.72;59.64;100726.06;127266;1093;64867;-83
2021/06/18 16:54:50;;;;;;;10.07;6.70;;;;;;;23.73;59.74;100735.83;127261;1093;64311;-83
2021/06/18 16:57:42;;;;;;;9.83;6.57;;;;;;;23.75;59.65;100730.34;127260;1093;64110;-84
2021/06/18 17:00:40;;;;;;;10.57;6.67;;;;;;;23.74;59.55;100725.92;127312;1092;64141;-83
2021/06/18 17:03:36;;;;;;;10.93;6.70;;;;;;;23.73;59.45;100729.59;127284;1093;64036;-83
2021/06/18 17:06:29;;;;;;;10.83;7.10;;;;;;;23.71;59.58;100732.43;127253;1093;64164;-84
2021/06/18 17:09:18;;;;;;;9.80;6.47;;;;;;;23.70;59.23;100719.09;127295;1093;64154;-84
2021/06/18 17:12:34;;;;;;;10.90;6.90;;;;;;;23.70;59.49;100711.00;127280;1093;64284;-83
2021/06/18 17:15:25;;;;;;;9.93;6.27;;;;;;;23.69;59.60;100709.28;127332;1093;65317;-83
2021/06/18 17:18:17;;;;;;;9.23;6.50;;;;;;;23.70;59.53;100711.84;127322;1093;64093;-83
2021/06/18 17:21:10;;;;;;;10.03;6.43;;;;;;;23.72;59.30;100712.59;127337;1093;64185;-84
2021/06/18 17:24:12;;;;;;;;;;;;;;;;;;;;;
2021/06/18 17:27:02;;;;;;;11.63;6.70;;;;;;;23.74;59.73;100713.30;127273;1093;64243;-84
2021/06/18 17:29:55;;;;;;;10.97;6.77;;;;;;;23.75;59.38;100708.78;127248;1093;64105;-85
2021/06/18 17:32:49;;;;;;;9.93;6.43;;;;;;;23.73;59.35;100706.19;127324;1093;64314;-84
2021/06/18 17:35:44;;;;;;;9.67;6.90;;;;;;;23.72;59.56;100701.80;127321;1093;64227;-83
2021/06/18 17:38:41;;;;;;;9.57;6.80;;;;;;;23.71;59.46;100704.61;127299;1093;64150;-84